Time;durP1;ratioP1;P1;durP2;ratioP2;P2;SDS_P1;SDS_P2;PMS_P1;PMS_P2;Temp;Humidity;BMP_temperature;BMP_pressure;BME280_temperature;BME280_humidity;BME280_pressure;Samples;Min_cycle;Max_cycle;Signal;HPM_P1;HPM_P2
2022/01/29 00:01:01;;;;;;;3.47;1.25;;;;;;;2.21;81.72;99232.48;1724712;80;21064;-72
2022/01/29 00:03:27;;;;;;;2.85;1.32;;;;;;;2.19;81.78;99242.34;1714383;82;21048;-71
2022/01/29 00:05:53;;;;;;;2.02;0.72;;;;;;;2.26;81.69;99244.16;1694415;83;20985;-70
2022/01/29 00:08:21;;;;;;;1.33;0.80;;;;;;;2.32;81.58;99251.39;1708146;82;21049;-70
2022/01/29 00:10:53;;;;;;;3.58;1.55;;;;;;;2.38;81.71;99245.98;1714072;82;21040;-70
2022/01/29 00:13:15;;;;;;;2.03;1.23;;;;;;;2.39;81.89;99255.50;1670163;82;21724;-71
2022/01/29 00:15:43;;;;;;;3.17;1.07;;;;;;;2.39;81.79;99262.08;1707030;83;21111;-70
2022/01/29 00:18:10;;;;;;;1.47;1.17;;;;;;;2.38;81.67;99260.45;1725537;82;21095;-71
2022/01/29 00:20:36;;;;;;;1.67;0.53;;;;;;;2.41;81.56;99256.19;1675929;84;21608;-69
2022/01/29 00:23:02;;;;;;;;;;;;;;;2.48;81.21;99265.05;1730184;82;21565;-72
2022/01/29 00:25:29;;;;;;;1.10;1.00;;;;;;;2.50;80.96;99273.59;1696701;83;20156;-69
2022/01/29 00:27:56;;;;;;;2.02;1.00;;;;;;;2.47;81.13;99273.94;1725395;82;21041;-70
2022/01/29 00:30:30;;;;;;;1.00;0.70;;;;;;;2.45;81.27;99262.77;1705339;83;21541;-69
2022/01/29 00:32:52;;;;;;;1.50;0.70;;;;;;;2.39;81.20;99266.02;1710224;83;21021;-67
2022/01/29 00:35:18;;;;;;;1.50;1.12;;;;;;;2.32;81.08;99263.73;1710737;83;21182;-72
2022/01/29 00:37:45;;;;;;;1.27;0.60;;;;;;;2.28;81.13;99270.27;1701646;83;21141;-70
2022/01/29 00:40:13;;;;;;;0.60;0.60;;;;;;;2.33;80.98;99274.06;1733466;81;21103;-70
2022/01/29 00:42:40;;;;;;;1.27;0.80;;;;;;;2.40;80.99;99270.81;1704089;83;21060;-72
2022/01/29 00:45:07;;;;;;;1.10;0.78;;;;;;;2.42;80.80;99276.22;1675361;84;21055;-69
2022/01/29 00:47:33;;;;;;;2.40;0.97;;;;;;;2.35;80.88;99277.84;1700301;83;20982;-70
2022/01/29 00:49:59;;;;;;;3.33;0.70;;;;;;;2.31;81.14;99279.16;1712980;82;21023;-70
2022/01/29 00:52:25;;;;;;;1.98;0.70;;;;;;;2.28;81.07;99284.73;1726804;82;21045;-71
2022/01/29 00:54:51;;;;;;;2.08;1.00;;;;;;;2.27;81.08;99288.36;1705190;82;20969;-68
2022/01/29 00:57:19;;;;;;;5.40;0.85;;;;;;;2.33;80.97;99287.21;1714381;82;21045;-69
2022/01/29 00:59:45;;;;;;;8.33;0.63;;;;;;;2.37;80.82;99287.72;1695632;83;21519;-70
2022/01/29 01:02:13;;;;;;;0.57;0.30;;;;;;;2.35;80.86;99289.69;1721496;82;21002;-70
2022/01/29 01:04:39;;;;;;;1.27;0.60;;;;;;;2.30;81.22;99295.94;1687220;83;21069;-69
2022/01/29 01:07:10;;;;;;;0.78;0.62;;;;;;;2.25;81.31;99299.03;1702991;83;21947;-70
2022/01/29 01:09:37;;;;;;;0.63;0.40;;;;;;;2.21;81.45;99291.64;1695136;83;21017;-68
2022/01/29 01:12:05;;;;;;;0.43;0.30;;;;;;;2.18;81.42;99293.27;1707779;81;21035;-70
2022/01/29 01:14:33;;;;;;;0.60;0.30;;;;;;;2.21;81.22;99297.71;1736240;81;21053;-70
2022/01/29 01:16:59;;;;;;;0.40;0.30;;;;;;;2.21;81.21;99297.71;1736549;81;21176;-78
2022/01/29 01:19:27;;;;;;;0.33;0.20;;;;;;;2.23;81.28;99301.00;1719691;81;20997;-70
2022/01/29 01:21:55;;;;;;;0.75;0.60;;;;;;;2.22;81.33;99301.16;1739208;81;21076;-68
2022/01/29 01:24:23;;;;;;;1.13;0.80;;;;;;;2.19;81.53;99304.12;1748728;81;21025;-76
2022/01/29 01:26:51;;;;;;;0.50;0.50;;;;;;;2.15;81.61;99306.25;1728314;81;21311;-70
2022/01/29 01:29:17;;;;;;;0.50;0.20;;;;;;;2.12;81.58;99319.20;1705262;83;21074;-70
2022/01/29 01:31:45;;;;;;;1.15;0.33;;;;;;;2.12;81.54;99319.70;1709835;83;21023;-74
2022/01/29 01:34:13;;;;;;;0.93;0.40;;;;;;;2.13;81.46;99316.91;1696247;82;21071;-72
2022/01/29 01:36:47;;;;;;;0.50;0.20;;;;;;;2.13;81.49;99320.86;1670954;84;21610;-71
2022/01/29 01:39:10;;;;;;;0.40;0.30;;;;;;;2.16;81.42;99332.04;1670634;84;21142;-70
2022/01/29 01:41:40;;;;;;;0.30;0.30;;;;;;;2.18;81.32;99322.18;1670227;84;21060;-70
2022/01/29 01:44:05;;;;;;;0.93;0.53;;;;;;;2.18;81.15;99331.38;1672245;83;21105;-69
2022/01/29 01:46:31;;;;;;;0.20;0.20;;;;;;;2.12;81.01;99330.21;1721673;82;21125;-70
2022/01/29 01:48:58;;;;;;;0.53;0.30;;;;;;;2.02;81.19;99335.59;1699958;82;21004;-68
2022/01/29 01:51:25;;;;;;;0.30;0.20;;;;;;;1.97;81.58;99337.87;1725495;82;21095;-70
2022/01/29 01:53:52;;;;;;;0.43;0.30;;;;;;;2.03;81.57;99337.73;1726803;82;21506;-68
2022/01/29 01:56:18;;;;;;;0.80;0.37;;;;;;;2.08;81.41;99334.14;1740751;80;20989;-69
2022/01/29 01:58:46;;;;;;;0.25;0.20;;;;;;;2.09;81.19;99348.92;1776350;80;21045;-70
2022/01/29 02:01:14;;;;;;;0.50;0.40;;;;;;;2.03;81.39;99354.31;1736211;80;21103;-70
2022/01/29 02:03:44;;;;;;;0.67;0.30;;;;;;;1.99;81.83;99349.05;1723180;82;21039;-69
2022/01/29 02:06:10;;;;;;;0.20;0.20;;;;;;;1.97;82.02;99357.58;1710304;82;21042;-70
2022/01/29 02:08:38;;;;;;;4.33;0.93;;;;;;;1.97;81.94;99364.65;1722100;82;21011;-71
2022/01/29 02:11:06;;;;;;;0.20;0.10;;;;;;;2.00;81.77;99364.31;1709946;82;21508;-69
2022/01/29 02:13:33;;;;;;;0.20;0.20;;;;;;;2.03;81.90;99373.21;1743252;80;20951;-70
2022/01/29 02:16:02;;;;;;;0.10;0.10;;;;;;;2.05;82.06;99372.06;1754277;80;21525;-70
2022/01/29 02:18:28;;;;;;;0.10;0.10;;;;;;;2.06;82.12;99371.59;1754316;80;21025;-69
2022/01/29 02:20:54;;;;;;;0.68;0.35;;;;;;;1.96;82.25;99378.29;1753108;80;21037;-71
2022/01/29 02:23:21;;;;;;;0.68;0.20;;;;;;;1.91;82.45;99383.19;1738290;80;21033;-70
2022/01/29 02:25:51;;;;;;;0.62;0.20;;;;;;;1.85;82.76;99390.38;1723375;82;21097;-70
2022/01/29 02:28:21;;;;;;;0.70;0.20;;;;;;;1.85;82.93;99387.75;1719458;82;21617;-70
2022/01/29 02:30:58;;;;;;;0.40;0.20;;;;;;;1.90;82.91;99393.34;1722661;82;21050;-69
2022/01/29 02:33:24;;;;;;;0.93;0.40;;;;;;;1.93;82.86;99402.24;1719748;82;21661;-68
2022/01/29 02:35:52;;;;;;;0.60;0.20;;;;;;;1.95;82.74;99405.54;1712165;82;21056;-70
2022/01/29 02:38:23;;;;;;;0.90;0.20;;;;;;;1.94;82.89;99410.45;1710005;82;21138;-71
2022/01/29 02:40:51;;;;;;;0.10;0.10;;;;;;;1.91;83.04;99416.03;1714658;82;21014;-68
2022/01/29 02:43:27;;;;;;;0.33;0.10;;;;;;;1.84;82.97;99418.94;1724113;82;21006;-71
2022/01/29 02:45:55;;;;;;;0.10;0.10;;;;;;;1.78;83.24;99423.01;1725640;82;21026;-70
2022/01/29 02:48:23;;;;;;;0.10;0.10;;;;;;;1.77;83.26;99428.41;1725425;82;21078;-67
2022/01/29 02:50:51;;;;;;;0.30;0.17;;;;;;;1.83;83.22;99432.58;1725633;82;21051;-70
2022/01/29 02:53:17;;;;;;;0.27;0.10;;;;;;;1.88;83.08;99425.53;1728058;82;20988;-68
2022/01/29 02:55:43;;;;;;;0.20;0.10;;;;;;;1.90;83.14;99434.92;1727760;82;20988;-69
2022/01/29 02:58:09;;;;;;;0.17;0.10;;;;;;;1.92;83.36;99436.06;1725848;82;21035;-70
2022/01/29 03:00:36;;;;;;;;;;;;;;;1.88;83.52;99439.48;1717318;82;20978;-70
2022/01/29 03:03:02;;;;;;;0.20;0.10;;;;;;;1.86;83.56;99449.33;1722691;82;20146;-70
2022/01/29 03:05:29;;;;;;;;;;;;;;;1.78;83.69;99452.41;1690857;83;21094;-71
2022/01/29 03:07:55;;;;;;;0.10;0.10;;;;;;;1.75;83.75;99451.73;1647552;85;20520;-69
2022/01/29 03:10:23;;;;;;;0.10;0.10;;;;;;;1.78;83.74;99456.34;1667498;84;21081;-72
2022/01/29 03:12:50;;;;;;;0.13;0.10;;;;;;;1.81;83.53;99463.44;1699234;83;21033;-70
2022/01/29 03:15:16;;;;;;;0.62;0.30;;;;;;;1.85;83.58;99463.95;1702387;82;21158;-68
2022/01/29 03:17:43;;;;;;;0.10;0.10;;;;;;;1.87;83.69;99464.62;1708174;83;21073;-68
2022/01/29 03:20:10;;;;;;;0.30;0.10;;;;;;;1.84;83.70;99475.44;1697980;83;21144;-69
2022/01/29 03:22:38;;;;;;;0.10;0.10;;;;;;;1.79;83.67;99473.75;1689005;83;21596;-67
2022/01/29 03:25:06;;;;;;;0.50;0.30;;;;;;;1.75;83.71;99476.70;1690810;83;21063;-69
2022/01/29 03:27:32;;;;;;;0.20;0.20;;;;;;;1.75;83.59;99470.13;1704603;83;20951;-68
2022/01/29 03:29:58;;;;;;;0.33;0.10;;;;;;;1.78;83.55;99480.81;1705035;83;21014;-69
2022/01/29 03:32:24;;;;;;;0.20;0.10;;;;;;;1.82;83.58;99482.65;1701931;83;20987;-74
2022/01/29 03:34:51;;;;;;;1.55;0.15;;;;;;;1.84;83.49;99479.38;1699071;82;21509;-75
2022/01/29 03:37:17;;;;;;;0.42;0.30;;;;;;;1.85;83.18;99488.42;1699719;83;21581;-75
2022/01/29 03:39:46;;;;;;;0.20;0.10;;;;;;;1.80;83.05;99494.62;1700899;83;21771;-75
2022/01/29 03:42:13;;;;;;;0.10;0.10;;;;;;;1.76;83.11;99499.84;1698718;83;22160;-74
2022/01/29 03:44:40;;;;;;;0.10;0.10;;;;;;;1.78;82.94;99501.02;1703994;83;21054;-74
2022/01/29 03:47:06;;;;;;;0.35;0.10;;;;;;;1.84;82.65;99503.03;1726918;83;21184;-75
2022/01/29 03:49:32;;;;;;;0.10;0.10;;;;;;;1.92;82.24;99507.02;1726986;82;21484;-72
2022/01/29 03:51:59;;;;;;;0.10;0.10;;;;;;;1.96;81.77;99503.13;1719583;82;20995;-73
2022/01/29 03:54:25;;;;;;;0.20;0.10;;;;;;;1.95;81.76;99509.36;1710660;82;21030;-71
2022/01/29 03:56:51;;;;;;;0.10;0.10;;;;;;;1.90;81.83;99522.97;1700804;83;21047;-73
2022/01/29 03:59:17;;;;;;;0.23;0.20;;;;;;;1.83;81.44;99514.50;1712687;83;21100;-74
2022/01/29 04:01:43;;;;;;;0.10;0.10;;;;;;;1.82;81.56;99520.75;1700581;83;21713;-74
2022/01/29 04:04:09;;;;;;;0.10;0.10;;;;;;;1.85;81.42;99517.33;1692299;83;21027;-74
2022/01/29 04:06:36;;;;;;;;;;;;;;;1.89;81.27;99523.11;1696897;83;21089;-73
2022/01/29 04:09:05;;;;;;;0.73;0.10;;;;;;;1.91;80.95;99531.67;1694232;83;20405;-75
2022/01/29 04:11:37;;;;;;;0.10;0.10;;;;;;;1.82;80.75;99520.75;1695169;83;21009;-74
2022/01/29 04:14:01;;;;;;;0.30;0.13;;;;;;;1.78;80.63;99541.74;1700515;83;21046;-75
2022/01/29 04:16:28;;;;;;;0.10;0.10;;;;;;;1.77;80.56;99542.70;1691754;83;21145;-74
2022/01/29 04:18:54;;;;;;;0.20;0.10;;;;;;;1.81;80.46;99542.73;1698771;83;21098;-74
2022/01/29 04:21:20;;;;;;;0.10;0.10;;;;;;;1.85;80.47;99551.99;1712787;83;20978;-73
2022/01/29 04:23:47;;;;;;;;;;;;;;;1.86;80.52;99551.81;1710561;81;21020;-74
2022/01/29 04:26:13;;;;;;;0.10;0.10;;;;;;;1.88;80.80;99548.55;1712555;81;20517;-72
2022/01/29 04:28:42;;;;;;;0.10;0.10;;;;;;;1.80;81.05;99560.81;1720267;81;21514;-73
2022/01/29 04:31:16;;;;;;;0.10;0.10;;;;;;;1.75;81.26;99556.84;1711056;81;21096;-73
2022/01/29 04:33:35;;;;;;;0.50;0.20;;;;;;;1.74;81.20;99566.99;1722040;81;21765;-69
2022/01/29 04:36:05;;;;;;;0.10;0.10;;;;;;;1.76;80.85;99574.73;1721524;81;21002;-69
2022/01/29 04:38:32;;;;;;;0.20;0.20;;;;;;;1.77;80.74;99576.86;1708326;81;20948;-69
2022/01/29 04:41:03;;;;;;;0.40;0.20;;;;;;;1.75;80.38;99579.17;1714599;81;20962;-68
2022/01/29 04:43:32;;;;;;;0.20;0.17;;;;;;;1.75;80.42;99575.23;1723206;81;21034;-67
2022/01/29 04:45:59;;;;;;;0.30;0.20;;;;;;;1.79;80.41;99583.64;1712775;81;21011;-69
2022/01/29 04:48:25;;;;;;;0.40;0.20;;;;;;;1.82;80.45;99586.45;1729655;81;21009;-70
2022/01/29 04:50:52;;;;;;;0.28;0.10;;;;;;;1.80;80.22;99577.39;1720927;81;21561;-70
2022/01/29 04:53:19;;;;;;;0.17;0.10;;;;;;;1.81;80.12;99595.29;1716515;81;21062;-70
2022/01/29 04:55:45;;;;;;;;;;;;;;;1.81;79.39;99595.29;1727264;81;21046;-71
2022/01/29 04:58:12;;;;;;;1.60;0.20;;;;;;;1.81;79.12;99589.57;1718014;81;20134;-71
2022/01/29 05:00:38;;;;;;;0.40;0.40;;;;;;;1.77;78.98;99592.13;1708802;81;21180;-70
2022/01/29 05:03:09;;;;;;;0.33;0.20;;;;;;;1.74;78.20;99606.41;1713859;81;21008;-72
2022/01/29 05:05:36;;;;;;;0.40;0.27;;;;;;;1.77;78.06;99602.64;1715884;81;21034;-71
2022/01/29 05:08:04;;;;;;;0.10;0.10;;;;;;;1.81;77.91;99611.05;1716825;81;21068;-71
2022/01/29 05:10:32;;;;;;;0.40;0.20;;;;;;;1.84;77.57;99610.27;1704814;81;21057;-71
2022/01/29 05:13:02;;;;;;;0.13;0.10;;;;;;;1.84;77.37;99622.59;1686659;83;21121;-71
2022/01/29 05:15:53;;;;;;;0.10;0.10;;;;;;;1.82;77.15;99629.80;1691135;83;21047;-71
2022/01/29 05:29:12;;;;;;;0.20;0.20;;;;;;;1.80;76.28;99662.80;1681266;83;20991;-71
2022/01/29 05:31:39;;;;;;;0.55;0.35;;;;;;;1.75;76.53;99664.56;1693768;83;21058;-71
2022/01/29 05:34:05;;;;;;;;;;;;;;;1.71;76.75;99674.19;1697090;83;21141;-71
2022/01/29 05:36:31;;;;;;;0.20;0.10;;;;;;;1.69;76.93;99671.70;1693019;83;20183;-71
2022/01/29 05:38:59;;;;;;;0.13;0.10;;;;;;;1.71;77.19;99682.07;1694896;83;21062;-71
2022/01/29 05:41:25;;;;;;;1.60;0.10;;;;;;;1.79;77.16;99679.55;1690512;83;21503;-71
2022/01/29 05:43:52;;;;;;;0.20;0.20;;;;;;;1.81;77.27;99692.05;1675011;83;21567;-71
2022/01/29 05:46:18;;;;;;;1.10;0.23;;;;;;;1.79;77.62;99690.06;1713912;82;21038;-71
2022/01/29 05:48:44;;;;;;;;;;;;;;;1.70;78.03;99699.64;1707326;82;21059;-71
2022/01/29 05:51:11;;;;;;;0.50;0.27;;;;;;;1.66;78.55;99697.47;1701507;82;20145;-71
2022/01/29 05:53:38;;;;;;;0.33;0.20;;;;;;;1.60;79.02;99701.51;1715098;82;21038;-71
2022/01/29 05:56:06;;;;;;;0.40;0.30;;;;;;;1.67;79.12;99715.69;1714132;81;21058;-71
2022/01/29 05:58:34;;;;;;;0.70;0.33;;;;;;;1.71;79.13;99706.56;1695529;82;21539;-71
2022/01/29 06:01:01;;;;;;;;;;;;;;;1.73;79.12;99715.12;1702539;82;21010;-71
2022/01/29 06:03:27;;;;;;;0.30;0.30;;;;;;;1.75;79.05;99725.00;1713102;82;20202;-69
2022/01/29 06:05:53;;;;;;;0.20;0.10;;;;;;;1.73;79.10;99723.01;1713081;82;21046;-69
2022/01/29 06:08:19;;;;;;;0.35;0.30;;;;;;;1.73;79.26;99723.47;1715556;82;21138;-71
2022/01/29 06:10:47;;;;;;;0.20;0.20;;;;;;;1.69;79.40;99718.99;1702480;82;21024;-69
2022/01/29 06:13:15;;;;;;;0.97;0.30;;;;;;;1.65;79.58;99734.72;1710326;82;20991;-70
2022/01/29 06:15:48;;;;;;;0.30;0.20;;;;;;;1.64;79.73;99736.16;1714225;82;21004;-69
2022/01/29 06:18:22;;;;;;;0.23;0.20;;;;;;;1.67;79.75;99741.14;1706645;82;21061;-70
2022/01/29 06:20:55;;;;;;;0.30;0.20;;;;;;;1.71;79.83;99731.53;1706933;82;21060;-69
2022/01/29 06:23:30;;;;;;;0.60;0.30;;;;;;;1.72;79.65;99729.22;1707665;82;20967;-70
2022/01/29 06:25:59;;;;;;;0.40;0.30;;;;;;;1.73;79.72;99744.49;1690986;82;21589;-71
2022/01/29 06:28:26;;;;;;;0.47;0.20;;;;;;;1.72;79.81;99752.87;1690375;82;21045;-70
2022/01/29 06:30:53;;;;;;;0.70;0.20;;;;;;;1.70;79.77;99756.63;1710599;82;20992;-69
2022/01/29 06:33:19;;;;;;;0.50;0.25;;;;;;;1.69;79.47;99761.03;1699230;82;21010;-69
2022/01/29 06:35:46;;;;;;;1.45;0.75;;;;;;;1.67;79.56;99755.59;1691687;82;21486;-70
2022/01/29 06:38:15;;;;;;;0.20;0.20;;;;;;;1.65;79.74;99768.87;1699233;82;21024;-70
2022/01/29 06:40:42;;;;;;;0.50;0.30;;;;;;;1.62;80.05;99765.23;1706456;82;21532;-70
2022/01/29 06:43:09;;;;;;;0.50;0.30;;;;;;;1.63;79.79;99772.63;1703446;82;21529;-70
2022/01/29 06:45:38;;;;;;;0.30;0.20;;;;;;;1.62;79.79;99766.55;1712415;82;20966;-71
2022/01/29 06:48:05;;;;;;;0.63;0.20;;;;;;;1.54;79.45;99778.24;1710744;82;20999;-72
2022/01/29 06:50:34;;;;;;;0.40;0.30;;;;;;;1.50;79.57;99774.25;1698634;82;21733;-69
2022/01/29 06:53:01;;;;;;;0.30;0.30;;;;;;;1.53;79.63;99785.80;1703188;82;21500;-69
2022/01/29 06:55:28;;;;;;;0.57;0.40;;;;;;;1.56;79.21;99792.06;1709474;82;20991;-68
2022/01/29 06:57:56;;;;;;;1.33;0.40;;;;;;;1.62;79.11;99792.82;1714084;82;21054;-69
2022/01/29 07:00:23;;;;;;;0.40;0.20;;;;;;;1.65;79.11;99784.62;1713126;82;21158;-70
2022/01/29 07:02:49;;;;;;;0.50;0.30;;;;;;;1.66;79.02;99805.19;1724973;81;21561;-72
2022/01/29 07:05:15;;;;;;;0.75;0.75;;;;;;;1.68;78.85;99790.10;1711134;82;21029;-72
2022/01/29 07:07:41;;;;;;;0.20;0.20;;;;;;;1.68;78.21;99797.48;1705302;82;21006;-71
2022/01/29 07:10:09;;;;;;;0.75;0.30;;;;;;;1.77;77.95;99802.34;1699146;82;21082;-71
2022/01/29 07:12:40;;;;;;;0.20;0.20;;;;;;;1.83;77.85;99802.25;1722584;81;20954;-70
2022/01/29 07:15:09;;;;;;;1.07;0.20;;;;;;;1.80;77.80;99806.01;1724111;81;21572;-71
2022/01/29 07:17:37;;;;;;;0.97;0.40;;;;;;;1.75;77.68;99811.72;1717506;81;21407;-72
2022/01/29 07:20:05;;;;;;;0.73;0.50;;;;;;;1.75;77.37;99813.48;1726916;81;21015;-71
2022/01/29 07:22:33;;;;;;;1.43;0.20;;;;;;;1.79;77.08;99824.55;1717636;81;21000;-71
2022/01/29 07:24:59;;;;;;;0.68;0.68;;;;;;;1.77;77.06;99826.48;1730484;81;21002;-72
2022/01/29 07:27:25;;;;;;;4.05;3.67;;;;;;;1.68;77.22;99828.20;1729728;81;20990;-72
2022/01/29 07:32:43;;;;;;;1.47;0.33;;;;;;;1.55;77.61;99825.87;1792516;78;22839;-72
2022/01/29 07:35:10;;;;;;;0.93;0.40;;;;;;;1.51;77.68;99831.90;1703070;80;21024;-71
2022/01/29 07:37:36;;;;;;;0.65;0.65;;;;;;;1.57;77.77;99839.70;1690010;83;21607;-71
2022/01/29 07:40:04;;;;;;;;;;;;;;;1.52;77.63;99830.09;1686467;83;21610;-72
2022/01/29 07:42:31;;;;;;;1.32;0.62;;;;;;;1.62;77.70;99847.98;1690197;83;20194;-73
2022/01/29 07:44:56;;;;;;;0.30;0.20;;;;;;;1.58;77.70;99849.22;1683913;83;21251;-72
2022/01/29 07:47:23;;;;;;;0.40;0.30;;;;;;;1.56;77.71;99857.73;1683935;83;21052;-70
2022/01/29 07:49:49;;;;;;;0.90;0.60;;;;;;;1.52;78.05;99852.42;1692405;83;21158;-71
2022/01/29 07:52:15;;;;;;;2.70;1.02;;;;;;;1.51;78.22;99869.17;1696308;83;21672;-73
2022/01/29 07:54:41;;;;;;;;;;;;;;;1.50;78.30;99862.25;1673273;83;21024;-72
2022/01/29 07:57:07;;;;;;;1.10;0.30;;;;;;;1.46;78.58;99855.63;1672954;83;20155;-72
2022/01/29 07:59:34;;;;;;;0.72;0.42;;;;;;;1.36;78.96;99851.21;1684887;83;21186;-70
2022/01/29 08:02:00;;;;;;;1.47;1.07;;;;;;;1.32;79.16;99866.09;1696829;82;21714;-71
2022/01/29 08:04:26;;;;;;;1.27;0.60;;;;;;;1.31;78.70;99873.12;1705896;82;21580;-71
2022/01/29 08:06:53;;;;;;;0.78;0.65;;;;;;;1.30;78.63;99881.98;1700109;82;21024;-72
2022/01/29 08:09:19;;;;;;;0.80;0.72;;;;;;;1.32;78.63;99871.34;1707831;82;21017;-72
2022/01/29 08:11:46;;;;;;;1.03;0.70;;;;;;;1.34;78.57;99879.91;1707006;81;21099;-71
2022/01/29 08:14:14;;;;;;;1.17;0.62;;;;;;;1.38;78.17;99884.40;1713659;82;20963;-73
2022/01/29 08:16:41;;;;;;;0.77;0.77;;;;;;;1.39;77.97;99888.17;1715588;82;21653;-72
2022/01/29 08:19:07;;;;;;;1.35;0.40;;;;;;;1.39;77.85;99895.23;1687992;82;21058;-71
2022/01/29 08:21:33;;;;;;;2.10;1.30;;;;;;;1.43;77.80;99902.70;1706923;82;21060;-71
2022/01/29 08:24:00;;;;;;;0.82;0.50;;;;;;;1.47;77.04;99896.20;1697242;80;21098;-74
2022/01/29 08:26:28;;;;;;;0.65;0.40;;;;;;;1.50;76.83;99903.78;1691345;83;21005;-73
2022/01/29 08:28:54;;;;;;;0.50;0.40;;;;;;;1.51;76.88;99909.88;1684203;84;21085;-72
2022/01/29 08:31:20;;;;;;;0.65;0.50;;;;;;;1.53;76.73;99906.13;1682610;83;21061;-73
2022/01/29 08:33:46;;;;;;;0.75;0.35;;;;;;;1.58;76.56;99909.64;1671704;84;21031;-73
2022/01/29 08:36:12;;;;;;;1.57;0.72;;;;;;;1.60;76.20;99894.59;1652533;85;21085;-72
2022/01/29 08:38:39;;;;;;;;;;;;;;;1.51;75.43;99900.20;1655288;85;21077;-73
2022/01/29 08:41:05;;;;;;;0.87;0.77;;;;;;;1.43;75.73;99917.16;1664498;85;20476;-71
2022/01/29 08:43:32;;;;;;;0.62;0.50;;;;;;;1.40;76.04;99925.30;1662319;85;21073;-72
2022/01/29 08:46:02;;;;;;;0.60;0.47;;;;;;;1.43;75.96;99921.55;1630974;87;21613;-73
2022/01/29 08:48:29;;;;;;;1.33;0.60;;;;;;;1.49;75.93;99914.45;1619700;87;21061;-71
2022/01/29 08:50:55;;;;;;;0.70;0.30;;;;;;;1.56;75.47;99918.15;1616494;87;21650;-72
2022/01/29 08:53:21;;;;;;;0.50;0.45;;;;;;;1.58;75.21;99929.83;1621940;87;21082;-73
2022/01/29 08:55:49;;;;;;;1.20;0.40;;;;;;;1.58;74.96;99926.72;1656722;84;21028;-71
2022/01/29 08:58:16;;;;;;;0.65;0.55;;;;;;;1.53;74.49;99930.27;1688226;83;20942;-71
2022/01/29 09:00:45;;;;;;;0.57;0.42;;;;;;;1.50;74.80;99941.05;1676284;83;21047;-70
2022/01/29 09:03:17;;;;;;;1.83;1.20;;;;;;;1.53;74.91;99941.59;1678862;84;21065;-69
2022/01/29 09:05:44;;;;;;;1.27;0.60;;;;;;;1.61;74.66;99944.84;1671583;84;21174;-73
2022/01/29 09:08:14;;;;;;;0.73;0.73;;;;;;;1.63;74.42;99936.82;1669792;83;21048;-72
2022/01/29 09:10:40;;;;;;;1.97;0.77;;;;;;;1.68;74.17;99953.00;1703221;83;21680;-74
2022/01/29 09:13:07;;;;;;;1.95;0.75;;;;;;;1.70;73.97;99943.17;1693472;83;21037;-74
2022/01/29 09:15:34;;;;;;;2.27;0.97;;;;;;;1.68;74.09;99938.05;1649816;86;21042;-74
2022/01/29 09:18:01;;;;;;;0.73;0.47;;;;;;;1.66;74.20;99937.37;1660572;85;21045;-75
2022/01/29 09:20:29;;;;;;;;;;;;;;;1.63;74.38;99948.64;1648856;85;21596;-70
2022/01/29 09:22:55;;;;;;;2.00;1.10;;;;;;;1.59;74.50;99945.46;1653890;85;20136;-73
2022/01/29 09:25:21;;;;;;;2.77;0.62;;;;;;;1.59;74.75;99943.33;1657470;85;20997;-70
2022/01/29 09:27:47;;;;;;;1.85;1.05;;;;;;;1.62;74.72;99958.33;1644526;85;21135;-70
2022/01/29 09:30:14;;;;;;;1.62;0.60;;;;;;;1.65;74.94;99954.58;1656646;85;21060;-68
2022/01/29 09:32:40;;;;;;;3.35;1.02;;;;;;;1.63;75.02;99953.41;1633793;85;21136;-72
2022/01/29 09:35:07;;;;;;;0.60;0.60;;;;;;;1.61;74.97;99961.09;1617131;86;21058;-70
2022/01/29 09:37:33;;;;;;;0.70;0.43;;;;;;;1.59;75.02;99959.91;1628328;86;20992;-70
2022/01/29 09:39:59;;;;;;;2.55;1.52;;;;;;;1.61;75.23;99964.54;1630889;86;20998;-69
2022/01/29 09:42:26;;;;;;;2.22;1.87;;;;;;;1.59;75.61;99969.59;1602306;87;21153;-69
2022/01/29 09:44:52;;;;;;;;;;;;;;;1.51;75.55;99962.42;1652991;83;21045;-72
2022/01/29 09:47:22;;;;;;;1.80;0.87;;;;;;;1.61;75.49;99964.54;1688449;83;20119;-68
2022/01/29 09:49:52;;;;;;;1.20;0.40;;;;;;;1.59;75.62;99961.22;1683443;83;21090;-70
2022/01/29 09:52:19;;;;;;;1.73;0.63;;;;;;;1.60;75.36;99967.30;1687331;83;21125;-67
2022/01/29 09:54:48;;;;;;;1.63;0.90;;;;;;;1.58;75.40;99973.18;1685066;83;21529;-70
2022/01/29 09:57:16;;;;;;;1.97;0.83;;;;;;;1.57;75.14;99966.28;1655714;84;21049;-77
2022/01/29 09:59:42;;;;;;;2.40;1.03;;;;;;;1.58;74.77;99963.49;1647545;85;20977;-71
2022/01/29 10:02:15;;;;;;;1.30;0.75;;;;;;;1.57;74.36;99972.85;1656641;84;21103;-70
2022/01/29 10:04:53;;;;;;;3.47;1.73;;;;;;;1.55;74.33;99966.42;1641066;86;21107;-71
2022/01/29 10:07:25;;;;;;;1.27;0.87;;;;;;;1.55;74.43;99972.98;1647812;84;21066;-71
2022/01/29 10:09:53;;;;;;;1.77;1.10;;;;;;;1.53;74.36;99965.23;1664874;84;21122;-66
2022/01/29 10:12:28;;;;;;;1.93;0.90;;;;;;;1.53;74.42;99977.06;1636584;86;21042;-64
2022/01/29 10:14:59;;;;;;;2.53;1.10;;;;;;;1.53;74.19;99980.17;1654941;84;21500;-67
2022/01/29 10:17:48;;;;;;;2.10;1.10;;;;;;;1.52;74.43;99986.38;1658398;84;21072;-65
2022/01/29 10:20:25;;;;;;;1.03;0.90;;;;;;;1.49;74.23;99987.50;1652553;84;21064;-63
2022/01/29 10:23:00;;;;;;;1.47;1.20;;;;;;;1.53;74.15;99992.00;1661032;84;21560;-64
2022/01/29 10:25:30;;;;;;;1.50;0.90;;;;;;;1.54;74.20;99996.27;1661580;85;21056;-64
2022/01/29 10:28:16;;;;;;;1.93;0.63;;;;;;;1.59;73.80;99984.87;1651559;85;20985;-65
2022/01/29 10:31:00;;;;;;;1.93;0.83;;;;;;;1.61;73.50;99996.06;1642921;85;21048;-66
2022/01/29 10:33:38;;;;;;;0.93;0.53;;;;;;;1.60;72.57;99989.62;1652809;85;21009;-64
2022/01/29 10:36:14;;;;;;;2.10;0.70;;;;;;;1.55;72.70;100007.14;1656875;85;21165;-70
2022/01/29 10:38:52;;;;;;;0.90;0.60;;;;;;;1.52;72.95;100002.97;1660527;85;21127;-69
2022/01/29 10:41:29;;;;;;;2.30;1.07;;;;;;;1.58;73.27;99997.64;1657238;85;21046;-71
2022/01/29 10:44:13;;;;;;;1.20;0.90;;;;;;;1.58;72.82;99986.31;1656734;85;21526;-70
2022/01/29 10:46:48;;;;;;;1.63;0.60;;;;;;;1.60;72.88;100000.99;1659330;86;20993;-68
2022/01/29 10:49:34;;;;;;;2.27;1.13;;;;;;;1.65;72.36;100004.01;1653582;85;21152;-69
2022/01/29 10:52:10;;;;;;;1.57;1.20;;;;;;;1.65;72.44;99992.19;1658815;85;21089;-70
2022/01/29 10:54:44;;;;;;;2.02;1.15;;;;;;;1.72;71.87;100009.06;1652736;85;21108;-69
2022/01/29 10:57:18;;;;;;;1.47;0.60;;;;;;;1.68;71.23;100003.74;1657710;84;21224;-73
2022/01/29 10:59:53;;;;;;;1.23;0.47;;;;;;;1.68;71.46;100001.61;1655824;85;21144;-72
2022/01/29 11:02:24;;;;;;;2.47;1.67;;;;;;;1.66;71.25;100010.94;1618326;86;21025;-71
2022/01/29 11:04:50;;;;;;;1.53;1.10;;;;;;;1.66;70.96;100007.48;1616802;86;21026;-70
2022/01/29 11:07:18;;;;;;;2.08;1.45;;;;;;;1.64;71.10;100022.07;1632816;86;21537;-69
2022/01/29 11:09:52;;;;;;;0.97;0.80;;;;;;;1.66;71.12;100018.82;1634674;86;21117;-69
2022/01/29 11:12:22;;;;;;;2.57;1.40;;;;;;;1.68;70.80;100013.44;1634454;85;21023;-71
2022/01/29 11:14:52;;;;;;;1.07;0.93;;;;;;;1.66;70.80;100015.38;1676998;84;21104;-70
2022/01/29 11:17:20;;;;;;;2.43;0.60;;;;;;;1.65;70.35;100007.95;1664951;84;21076;-69
2022/01/29 11:19:47;;;;;;;1.63;0.70;;;;;;;1.66;70.42;100025.88;1624359;85;20994;-71
2022/01/29 11:22:18;;;;;;;1.50;0.90;;;;;;;1.61;70.60;100011.83;1626670;85;20982;-71
2022/01/29 11:24:48;;;;;;;1.40;0.60;;;;;;;1.72;69.88;100028.77;1645819;85;21310;-70
2022/01/29 11:27:30;;;;;;;1.37;0.80;;;;;;;1.68;70.11;100028.70;1629570;86;21600;-69
2022/01/29 11:30:12;;;;;;;2.70;0.70;;;;;;;1.70;69.99;100024.14;1612511;86;21585;-71
2022/01/29 11:32:45;;;;;;;2.83;1.20;;;;;;;1.68;69.56;100027.39;1627042;86;21140;-64
2022/01/29 11:35:28;;;;;;;1.67;0.63;;;;;;;1.65;69.89;100026.34;1638158;85;21069;-62
2022/01/29 11:38:08;;;;;;;1.93;0.80;;;;;;;1.68;69.70;100036.59;1649663;85;21020;-64
2022/01/29 11:40:58;;;;;;;0.50;0.50;;;;;;;1.68;69.77;100039.70;1652901;86;21053;-64
2022/01/29 11:43:34;;;;;;;1.33;0.60;;;;;;;1.70;69.42;100037.27;1641343;85;21128;-62
2022/01/29 11:48:38;;;;;;;1.30;1.00;;;;;;;1.70;69.71;100046.47;1657180;84;21069;-62
2022/01/29 11:51:09;;;;;;;0.90;0.60;;;;;;;1.75;69.63;100042.95;1655321;84;21192;-63
2022/01/29 11:53:54;;;;;;;1.33;0.70;;;;;;;1.77;69.50;100049.36;1656743;84;21163;-63
2022/01/29 11:56:44;;;;;;;1.90;1.07;;;;;;;1.78;69.08;100049.72;1661023;84;21093;-63
2022/01/29 11:59:23;;;;;;;3.43;1.00;;;;;;;1.80;69.00;100045.16;1672044;84;21584;-63
2022/01/29 12:01:59;;;;;;;2.17;0.90;;;;;;;1.83;68.78;100044.03;1671397;84;21072;-63
2022/01/29 12:04:53;;;;;;;1.83;0.83;;;;;;;1.84;68.96;100047.84;1666601;84;20990;-64
2022/01/29 12:07:29;;;;;;;0.63;0.40;;;;;;;1.87;68.69;100042.31;1668811;84;21041;-64